sensor_id;sensor_type;location;lat;lon;timestamp;P1;durP1;ratioP1;P2;durP2;ratioP2
13309;SDS011;6723;48.256;16.402;2023-11-21T00:00:34;3.27;;;1.30;;
13309;SDS011;6723;48.256;16.402;2023-11-21T00:03:00;3.87;;;1.43;;
13309;SDS011;6723;48.256;16.402;2023-11-21T00:05:26;5.87;;;1.40;;
13309;SDS011;6723;48.256;16.402;2023-11-21T00:07:51;3.50;;;1.33;;
13309;SDS011;6723;48.256;16.402;2023-11-21T00:10:17;3.10;;;1.23;;
13309;SDS011;6723;48.256;16.402;2023-11-21T00:12:43;4.37;;;1.30;;
13309;SDS011;6723;48.256;16.402;2023-11-21T00:15:09;3.20;;;1.50;;
13309;SDS011;6723;48.256;16.402;2023-11-21T00:17:38;3.77;;;1.10;;
13309;SDS011;6723;48.256;16.402;2023-11-21T00:20:07;2.20;;;1.23;;
13309;SDS011;6723;48.256;16.402;2023-11-21T00:22:34;3.90;;;1.23;;
13309;SDS011;6723;48.256;16.402;2023-11-21T00:25:00;5.87;;;1.13;;
13309;SDS011;6723;48.256;16.402;2023-11-21T00:27:29;1.93;;;1.30;;
13309;SDS011;6723;48.256;16.402;2023-11-21T00:29:55;3.53;;;1.33;;
13309;SDS011;6723;48.256;16.402;2023-11-21T00:32:21;4.53;;;1.40;;
13309;SDS011;6723;48.256;16.402;2023-11-21T00:44:52;3.87;;;1.27;;
13309;SDS011;6723;48.256;16.402;2023-11-21T00:47:18;4.53;;;1.27;;
13309;SDS011;6723;48.256;16.402;2023-11-21T00:49:44;3.57;;;1.20;;
13309;SDS011;6723;48.256;16.402;2023-11-21T00:52:10;2.43;;;1.23;;
13309;SDS011;6723;48.256;16.402;2023-11-21T00:54:35;3.67;;;1.20;;
13309;SDS011;6723;48.256;16.402;2023-11-21T00:57:01;4.87;;;1.40;;
13309;SDS011;6723;48.256;16.402;2023-11-21T00:59:27;2.17;;;1.10;;
13309;SDS011;6723;48.256;16.402;2023-11-21T01:01:53;4.90;;;1.20;;
13309;SDS011;6723;48.256;16.402;2023-11-21T01:04:19;4.07;;;1.30;;
13309;SDS011;6723;48.256;16.402;2023-11-21T01:06:45;4.20;;;1.30;;
13309;SDS011;6723;48.256;16.402;2023-11-21T01:09:10;3.27;;;1.43;;
13309;SDS011;6723;48.256;16.402;2023-11-21T01:11:37;3.00;;;1.13;;
13309;SDS011;6723;48.256;16.402;2023-11-21T01:14:04;2.63;;;1.20;;
13309;SDS011;6723;48.256;16.402;2023-11-21T01:16:31;2.77;;;1.33;;
13309;SDS011;6723;48.256;16.402;2023-11-21T01:18:58;3.50;;;1.00;;
13309;SDS011;6723;48.256;16.402;2023-11-21T01:21:25;3.43;;;0.90;;
13309;SDS011;6723;48.256;16.402;2023-11-21T01:23:51;4.13;;;1.20;;
13309;SDS011;6723;48.256;16.402;2023-11-21T01:26:16;3.00;;;1.37;;
13309;SDS011;6723;48.256;16.402;2023-11-21T01:28:42;3.00;;;1.60;;
13309;SDS011;6723;48.256;16.402;2023-11-21T01:31:08;3.90;;;1.30;;
13309;SDS011;6723;48.256;16.402;2023-11-21T01:33:34;2.60;;;1.20;;
13309;SDS011;6723;48.256;16.402;2023-11-21T01:35:59;2.70;;;1.17;;
13309;SDS011;6723;48.256;16.402;2023-11-21T01:38:25;2.80;;;1.40;;
13309;SDS011;6723;48.256;16.402;2023-11-21T01:40:51;4.00;;;1.20;;
13309;SDS011;6723;48.256;16.402;2023-11-21T01:43:17;4.57;;;1.27;;
13309;SDS011;6723;48.256;16.402;2023-11-21T01:45:43;2.70;;;1.33;;
13309;SDS011;6723;48.256;16.402;2023-11-21T01:48:10;3.97;;;1.30;;
13309;SDS011;6723;48.256;16.402;2023-11-21T01:50:37;2.13;;;1.20;;
13309;SDS011;6723;48.256;16.402;2023-11-21T01:53:03;3.83;;;1.33;;
13309;SDS011;6723;48.256;16.402;2023-11-21T01:55:30;4.73;;;1.60;;
13309;SDS011;6723;48.256;16.402;2023-11-21T01:57:56;3.27;;;1.33;;
13309;SDS011;6723;48.256;16.402;2023-11-21T02:00:22;2.97;;;1.50;;
13309;SDS011;6723;48.256;16.402;2023-11-21T02:02:49;4.37;;;1.63;;
13309;SDS011;6723;48.256;16.402;2023-11-21T02:05:15;5.20;;;1.60;;
13309;SDS011;6723;48.256;16.402;2023-11-21T02:07:45;3.30;;;1.50;;
13309;SDS011;6723;48.256;16.402;2023-11-21T02:10:13;8.20;;;1.90;;
13309;SDS011;6723;48.256;16.402;2023-11-21T02:12:40;2.60;;;1.37;;
13309;SDS011;6723;48.256;16.402;2023-11-21T02:15:13;3.03;;;1.60;;
13309;SDS011;6723;48.256;16.402;2023-11-21T02:17:49;2.37;;;1.33;;
13309;SDS011;6723;48.256;16.402;2023-11-21T02:20:19;4.17;;;1.60;;
13309;SDS011;6723;48.256;16.402;2023-11-21T02:22:49;2.53;;;1.83;;
13309;SDS011;6723;48.256;16.402;2023-11-21T02:25:27;3.73;;;1.60;;
13309;SDS011;6723;48.256;16.402;2023-11-21T02:27:54;3.67;;;1.87;;
13309;SDS011;6723;48.256;16.402;2023-11-21T02:30:21;3.17;;;1.63;;
13309;SDS011;6723;48.256;16.402;2023-11-21T02:32:48;7.73;;;2.20;;
13309;SDS011;6723;48.256;16.402;2023-11-21T02:35:14;4.33;;;1.87;;
13309;SDS011;6723;48.256;16.402;2023-11-21T02:37:43;3.97;;;1.87;;
13309;SDS011;6723;48.256;16.402;2023-11-21T02:40:09;5.73;;;2.00;;
13309;SDS011;6723;48.256;16.402;2023-11-21T02:42:43;3.47;;;1.90;;
13309;SDS011;6723;48.256;16.402;2023-11-21T02:45:09;3.53;;;1.80;;
13309;SDS011;6723;48.256;16.402;2023-11-21T02:47:38;3.03;;;1.67;;
13309;SDS011;6723;48.256;16.402;2023-11-21T02:50:05;5.87;;;1.90;;
13309;SDS011;6723;48.256;16.402;2023-11-21T02:52:33;5.43;;;1.80;;
13309;SDS011;6723;48.256;16.402;2023-11-21T02:55:02;5.63;;;1.97;;
13309;SDS011;6723;48.256;16.402;2023-11-21T02:57:29;4.30;;;2.00;;
13309;SDS011;6723;48.256;16.402;2023-11-21T02:59:55;4.77;;;1.87;;
13309;SDS011;6723;48.256;16.402;2023-11-21T03:02:21;5.47;;;2.50;;
13309;SDS011;6723;48.256;16.402;2023-11-21T03:04:47;4.90;;;2.20;;
13309;SDS011;6723;48.256;16.402;2023-11-21T03:07:14;3.23;;;1.80;;
13309;SDS011;6723;48.256;16.402;2023-11-21T03:09:41;4.73;;;1.97;;
13309;SDS011;6723;48.256;16.402;2023-11-21T03:12:09;4.97;;;2.33;;
13309;SDS011;6723;48.256;16.402;2023-11-21T03:14:37;5.03;;;2.07;;
13309;SDS011;6723;48.256;16.402;2023-11-21T03:17:03;4.43;;;2.13;;
13309;SDS011;6723;48.256;16.402;2023-11-21T03:19:30;3.77;;;2.33;;
13309;SDS011;6723;48.256;16.402;2023-11-21T03:21:56;6.00;;;2.10;;
13309;SDS011;6723;48.256;16.402;2023-11-21T03:24:22;4.10;;;1.90;;
13309;SDS011;6723;48.256;16.402;2023-11-21T03:26:48;4.60;;;2.10;;
13309;SDS011;6723;48.256;16.402;2023-11-21T03:29:15;5.77;;;2.17;;
13309;SDS011;6723;48.256;16.402;2023-11-21T03:31:41;7.40;;;2.03;;
13309;SDS011;6723;48.256;16.402;2023-11-21T03:34:10;3.53;;;2.10;;
13309;SDS011;6723;48.256;16.402;2023-11-21T03:36:40;5.97;;;2.10;;
13309;SDS011;6723;48.256;16.402;2023-11-21T03:39:07;6.03;;;2.47;;
13309;SDS011;6723;48.256;16.402;2023-11-21T03:41:32;5.57;;;2.17;;
13309;SDS011;6723;48.256;16.402;2023-11-21T03:44:01;5.50;;;2.57;;
13309;SDS011;6723;48.256;16.402;2023-11-21T03:46:27;5.40;;;2.30;;
13309;SDS011;6723;48.256;16.402;2023-11-21T03:48:53;7.13;;;2.83;;
13309;SDS011;6723;48.256;16.402;2023-11-21T03:51:20;5.43;;;2.30;;
13309;SDS011;6723;48.256;16.402;2023-11-21T03:53:46;6.57;;;2.60;;
13309;SDS011;6723;48.256;16.402;2023-11-21T03:56:13;3.57;;;2.20;;
13309;SDS011;6723;48.256;16.402;2023-11-21T03:58:39;5.80;;;2.37;;
13309;SDS011;6723;48.256;16.402;2023-11-21T04:01:05;3.63;;;2.30;;
13309;SDS011;6723;48.256;16.402;2023-11-21T04:03:31;5.43;;;2.40;;
13309;SDS011;6723;48.256;16.402;2023-11-21T04:05:57;5.37;;;2.00;;
13309;SDS011;6723;48.256;16.402;2023-11-21T04:08:22;2.97;;;2.10;;
13309;SDS011;6723;48.256;16.402;2023-11-21T04:10:48;4.43;;;1.87;;
13309;SDS011;6723;48.256;16.402;2023-11-21T04:13:14;5.83;;;2.50;;
13309;SDS011;6723;48.256;16.402;2023-11-21T04:15:39;4.00;;;2.47;;
13309;SDS011;6723;48.256;16.402;2023-11-21T04:18:05;6.33;;;3.03;;
13309;SDS011;6723;48.256;16.402;2023-11-21T04:20:31;6.50;;;2.63;;
13309;SDS011;6723;48.256;16.402;2023-11-21T04:22:57;8.33;;;3.07;;
13309;SDS011;6723;48.256;16.402;2023-11-21T04:25:23;4.47;;;2.50;;
13309;SDS011;6723;48.256;16.402;2023-11-21T04:27:48;5.63;;;2.60;;
13309;SDS011;6723;48.256;16.402;2023-11-21T04:30:14;4.00;;;2.70;;
13309;SDS011;6723;48.256;16.402;2023-11-21T04:32:40;8.03;;;2.60;;
13309;SDS011;6723;48.256;16.402;2023-11-21T04:35:09;7.03;;;2.43;;
13309;SDS011;6723;48.256;16.402;2023-11-21T04:37:35;4.57;;;2.67;;
13309;SDS011;6723;48.256;16.402;2023-11-21T04:40:01;5.93;;;2.80;;
13309;SDS011;6723;48.256;16.402;2023-11-21T04:42:28;8.83;;;2.73;;
13309;SDS011;6723;48.256;16.402;2023-11-21T04:44:54;8.53;;;3.03;;
13309;SDS011;6723;48.256;16.402;2023-11-21T04:47:19;6.43;;;2.73;;
13309;SDS011;6723;48.256;16.402;2023-11-21T04:49:45;6.00;;;2.77;;
13309;SDS011;6723;48.256;16.402;2023-11-21T04:52:14;6.93;;;2.63;;
13309;SDS011;6723;48.256;16.402;2023-11-21T04:54:40;6.10;;;2.43;;
13309;SDS011;6723;48.256;16.402;2023-11-21T04:57:05;7.73;;;2.70;;
13309;SDS011;6723;48.256;16.402;2023-11-21T04:59:34;6.27;;;2.70;;
13309;SDS011;6723;48.256;16.402;2023-11-21T05:02:00;7.80;;;2.47;;
13309;SDS011;6723;48.256;16.402;2023-11-21T05:04:26;4.80;;;2.20;;
13309;SDS011;6723;48.256;16.402;2023-11-21T05:06:52;4.63;;;2.57;;
13309;SDS011;6723;48.256;16.402;2023-11-21T05:09:18;6.40;;;2.77;;
13309;SDS011;6723;48.256;16.402;2023-11-21T05:11:43;4.20;;;2.17;;
13309;SDS011;6723;48.256;16.402;2023-11-21T05:14:09;7.33;;;2.80;;
13309;SDS011;6723;48.256;16.402;2023-11-21T05:16:35;4.67;;;2.63;;
13309;SDS011;6723;48.256;16.402;2023-11-21T05:19:01;5.63;;;2.47;;
13309;SDS011;6723;48.256;16.402;2023-11-21T05:21:29;6.40;;;2.80;;
13309;SDS011;6723;48.256;16.402;2023-11-21T05:23:58;4.20;;;2.60;;
13309;SDS011;6723;48.256;16.402;2023-11-21T05:26:24;8.73;;;2.80;;
13309;SDS011;6723;48.256;16.402;2023-11-21T05:28:50;9.27;;;3.60;;
13309;SDS011;6723;48.256;16.402;2023-11-21T05:31:16;7.80;;;4.00;;
13309;SDS011;6723;48.256;16.402;2023-11-21T05:33:42;6.20;;;3.60;;
13309;SDS011;6723;48.256;16.402;2023-11-21T05:36:08;16.80;;;7.87;;
13309;SDS011;6723;48.256;16.402;2023-11-21T05:38:35;12.53;;;6.27;;
13309;SDS011;6723;48.256;16.402;2023-11-21T05:41:01;14.80;;;6.47;;
13309;SDS011;6723;48.256;16.402;2023-11-21T05:43:28;6.20;;;3.57;;
13309;SDS011;6723;48.256;16.402;2023-11-21T05:45:55;7.73;;;4.10;;
13309;SDS011;6723;48.256;16.402;2023-11-21T05:48:21;7.30;;;4.37;;
13309;SDS011;6723;48.256;16.402;2023-11-21T05:50:47;12.03;;;5.03;;
13309;SDS011;6723;48.256;16.402;2023-11-21T05:53:15;7.40;;;4.07;;
13309;SDS011;6723;48.256;16.402;2023-11-21T05:55:42;8.93;;;3.80;;
13309;SDS011;6723;48.256;16.402;2023-11-21T05:58:07;9.53;;;3.93;;
13309;SDS011;6723;48.256;16.402;2023-11-21T06:00:33;6.47;;;4.27;;
13309;SDS011;6723;48.256;16.402;2023-11-21T06:03:01;6.37;;;2.63;;
13309;SDS011;6723;48.256;16.402;2023-11-21T06:05:27;9.30;;;3.50;;
13309;SDS011;6723;48.256;16.402;2023-11-21T06:07:53;12.50;;;4.83;;
13309;SDS011;6723;48.256;16.402;2023-11-21T06:10:21;12.70;;;4.07;;
13309;SDS011;6723;48.256;16.402;2023-11-21T06:12:49;9.53;;;3.93;;
13309;SDS011;6723;48.256;16.402;2023-11-21T06:15:14;17.90;;;7.40;;
13309;SDS011;6723;48.256;16.402;2023-11-21T06:17:44;21.57;;;8.87;;
13309;SDS011;6723;48.256;16.402;2023-11-21T06:20:14;14.83;;;8.47;;
13309;SDS011;6723;48.256;16.402;2023-11-21T06:22:44;19.30;;;10.87;;
13309;SDS011;6723;48.256;16.402;2023-11-21T06:25:11;23.07;;;10.53;;
13309;SDS011;6723;48.256;16.402;2023-11-21T06:27:39;18.77;;;9.03;;
13309;SDS011;6723;48.256;16.402;2023-11-21T06:30:07;20.27;;;8.23;;
13309;SDS011;6723;48.256;16.402;2023-11-21T06:32:35;11.03;;;5.10;;
13309;SDS011;6723;48.256;16.402;2023-11-21T06:35:02;14.97;;;4.90;;
13309;SDS011;6723;48.256;16.402;2023-11-21T06:37:29;13.77;;;3.77;;
13309;SDS011;6723;48.256;16.402;2023-11-21T06:39:57;9.30;;;3.30;;
13309;SDS011;6723;48.256;16.402;2023-11-21T06:42:24;7.03;;;2.90;;
13309;SDS011;6723;48.256;16.402;2023-11-21T06:44:50;8.43;;;3.17;;
13309;SDS011;6723;48.256;16.402;2023-11-21T06:47:17;5.50;;;2.90;;
13309;SDS011;6723;48.256;16.402;2023-11-21T06:49:45;7.40;;;3.23;;
13309;SDS011;6723;48.256;16.402;2023-11-21T06:52:13;10.10;;;4.67;;
13309;SDS011;6723;48.256;16.402;2023-11-21T06:54:39;12.33;;;4.60;;
13309;SDS011;6723;48.256;16.402;2023-11-21T06:57:05;11.60;;;4.57;;
13309;SDS011;6723;48.256;16.402;2023-11-21T06:59:31;13.07;;;4.87;;
13309;SDS011;6723;48.256;16.402;2023-11-21T07:01:57;10.13;;;4.57;;
13309;SDS011;6723;48.256;16.402;2023-11-21T07:04:23;13.50;;;4.40;;
13309;SDS011;6723;48.256;16.402;2023-11-21T07:06:51;10.70;;;4.57;;
13309;SDS011;6723;48.256;16.402;2023-11-21T07:09:20;15.93;;;3.80;;
13309;SDS011;6723;48.256;16.402;2023-11-21T07:11:50;12.57;;;4.50;;
13309;SDS011;6723;48.256;16.402;2023-11-21T07:14:17;10.07;;;4.17;;
13309;SDS011;6723;48.256;16.402;2023-11-21T07:16:45;14.33;;;5.13;;
13309;SDS011;6723;48.256;16.402;2023-11-21T07:19:11;10.40;;;4.77;;
13309;SDS011;6723;48.256;16.402;2023-11-21T07:21:39;11.37;;;5.83;;
13309;SDS011;6723;48.256;16.402;2023-11-21T07:24:06;14.37;;;5.40;;
13309;SDS011;6723;48.256;16.402;2023-11-21T07:26:33;11.90;;;6.33;;
13309;SDS011;6723;48.256;16.402;2023-11-21T07:29:00;17.13;;;6.90;;
13309;SDS011;6723;48.256;16.402;2023-11-21T07:31:27;16.13;;;5.53;;
13309;SDS011;6723;48.256;16.402;2023-11-21T07:33:54;11.73;;;5.27;;
13309;SDS011;6723;48.256;16.402;2023-11-21T07:36:24;17.47;;;5.40;;
13309;SDS011;6723;48.256;16.402;2023-11-21T07:38:52;8.30;;;4.23;;
13309;SDS011;6723;48.256;16.402;2023-11-21T07:41:19;9.23;;;4.67;;
13309;SDS011;6723;48.256;16.402;2023-11-21T07:43:46;11.63;;;4.27;;
13309;SDS011;6723;48.256;16.402;2023-11-21T07:46:12;9.87;;;4.77;;
13309;SDS011;6723;48.256;16.402;2023-11-21T07:48:39;11.93;;;4.60;;
13309;SDS011;6723;48.256;16.402;2023-11-21T07:51:07;10.93;;;4.20;;
13309;SDS011;6723;48.256;16.402;2023-11-21T07:53:34;11.43;;;4.60;;
13309;SDS011;6723;48.256;16.402;2023-11-21T07:56:04;18.17;;;5.00;;
13309;SDS011;6723;48.256;16.402;2023-11-21T07:58:31;12.73;;;4.50;;
13309;SDS011;6723;48.256;16.402;2023-11-21T08:01:00;12.67;;;4.23;;
13309;SDS011;6723;48.256;16.402;2023-11-21T08:03:28;12.40;;;4.43;;
13309;SDS011;6723;48.256;16.402;2023-11-21T08:05:56;13.73;;;4.80;;
13309;SDS011;6723;48.256;16.402;2023-11-21T08:08:28;11.27;;;4.73;;
13309;SDS011;6723;48.256;16.402;2023-11-21T08:10:54;11.43;;;5.43;;
13309;SDS011;6723;48.256;16.402;2023-11-21T08:13:23;12.63;;;4.83;;
13309;SDS011;6723;48.256;16.402;2023-11-21T08:15:50;13.07;;;4.93;;
13309;SDS011;6723;48.256;16.402;2023-11-21T08:18:19;10.83;;;5.43;;
13309;SDS011;6723;48.256;16.402;2023-11-21T08:20:44;13.90;;;5.03;;
13309;SDS011;6723;48.256;16.402;2023-11-21T08:23:16;9.77;;;3.80;;
13309;SDS011;6723;48.256;16.402;2023-11-21T08:25:45;10.67;;;4.13;;
13309;SDS011;6723;48.256;16.402;2023-11-21T08:28:12;10.23;;;4.30;;
13309;SDS011;6723;48.256;16.402;2023-11-21T08:30:39;6.40;;;3.37;;
13309;SDS011;6723;48.256;16.402;2023-11-21T08:33:07;11.23;;;4.50;;
13309;SDS011;6723;48.256;16.402;2023-11-21T08:35:37;18.77;;;4.67;;
13309;SDS011;6723;48.256;16.402;2023-11-21T08:38:03;13.60;;;4.80;;
13309;SDS011;6723;48.256;16.402;2023-11-21T08:40:29;14.50;;;4.70;;
13309;SDS011;6723;48.256;16.402;2023-11-21T08:42:55;12.63;;;4.37;;
13309;SDS011;6723;48.256;16.402;2023-11-21T08:45:24;13.10;;;4.70;;
13309;SDS011;6723;48.256;16.402;2023-11-21T08:47:53;13.33;;;4.60;;
13309;SDS011;6723;48.256;16.402;2023-11-21T08:50:19;16.20;;;4.23;;
13309;SDS011;6723;48.256;16.402;2023-11-21T08:52:46;13.03;;;4.67;;
13309;SDS011;6723;48.256;16.402;2023-11-21T08:55:13;13.67;;;4.80;;
13309;SDS011;6723;48.256;16.402;2023-11-21T08:57:40;11.20;;;4.80;;
13309;SDS011;6723;48.256;16.402;2023-11-21T09:00:08;19.17;;;5.83;;
13309;SDS011;6723;48.256;16.402;2023-11-21T09:02:36;16.77;;;4.63;;
13309;SDS011;6723;48.256;16.402;2023-11-21T09:05:04;14.97;;;5.40;;
13309;SDS011;6723;48.256;16.402;2023-11-21T09:07:31;15.27;;;4.43;;
13309;SDS011;6723;48.256;16.402;2023-11-21T09:09:57;12.83;;;5.13;;
13309;SDS011;6723;48.256;16.402;2023-11-21T09:12:24;12.30;;;4.37;;
13309;SDS011;6723;48.256;16.402;2023-11-21T09:14:52;11.47;;;4.90;;
13309;SDS011;6723;48.256;16.402;2023-11-21T09:17:18;8.70;;;3.87;;
13309;SDS011;6723;48.256;16.402;2023-11-21T09:19:45;10.43;;;4.20;;
13309;SDS011;6723;48.256;16.402;2023-11-21T09:22:15;10.93;;;3.77;;
13309;SDS011;6723;48.256;16.402;2023-11-21T09:24:41;13.60;;;4.60;;
13309;SDS011;6723;48.256;16.402;2023-11-21T09:27:07;7.47;;;3.17;;
13309;SDS011;6723;48.256;16.402;2023-11-21T09:29:34;6.57;;;3.03;;
13309;SDS011;6723;48.256;16.402;2023-11-21T09:32:03;6.03;;;2.80;;
13309;SDS011;6723;48.256;16.402;2023-11-21T09:34:31;5.50;;;2.20;;
13309;SDS011;6723;48.256;16.402;2023-11-21T09:36:58;5.40;;;2.50;;
13309;SDS011;6723;48.256;16.402;2023-11-21T09:39:24;6.07;;;2.33;;
13309;SDS011;6723;48.256;16.402;2023-11-21T09:41:50;8.03;;;2.80;;
13309;SDS011;6723;48.256;16.402;2023-11-21T09:44:42;10.53;;;2.67;;
13309;SDS011;6723;48.256;16.402;2023-11-21T09:47:14;6.50;;;2.80;;
13309;SDS011;6723;48.256;16.402;2023-11-21T09:49:42;10.03;;;2.83;;
13309;SDS011;6723;48.256;16.402;2023-11-21T09:52:15;10.73;;;2.90;;
13309;SDS011;6723;48.256;16.402;2023-11-21T09:54:52;6.37;;;2.33;;
13309;SDS011;6723;48.256;16.402;2023-11-21T09:57:21;7.30;;;2.60;;
13309;SDS011;6723;48.256;16.402;2023-11-21T09:59:52;8.67;;;2.67;;
13309;SDS011;6723;48.256;16.402;2023-11-21T10:02:27;6.50;;;2.50;;
13309;SDS011;6723;48.256;16.402;2023-11-21T10:04:55;9.40;;;2.23;;
13309;SDS011;6723;48.256;16.402;2023-11-21T10:07:21;5.07;;;2.53;;
13309;SDS011;6723;48.256;16.402;2023-11-21T10:09:48;7.20;;;2.00;;
13309;SDS011;6723;48.256;16.402;2023-11-21T10:12:17;3.33;;;1.50;;
13309;SDS011;6723;48.256;16.402;2023-11-21T10:14:45;4.43;;;1.20;;
13309;SDS011;6723;48.256;16.402;2023-11-21T10:17:14;5.23;;;1.60;;
13309;SDS011;6723;48.256;16.402;2023-11-21T10:19:47;3.30;;;1.03;;
13309;SDS011;6723;48.256;16.402;2023-11-21T10:22:14;2.77;;;1.40;;
13309;SDS011;6723;48.256;16.402;2023-11-21T10:24:41;5.10;;;1.33;;
13309;SDS011;6723;48.256;16.402;2023-11-21T10:27:08;5.73;;;1.83;;
13309;SDS011;6723;48.256;16.402;2023-11-21T10:29:34;3.07;;;1.40;;
13309;SDS011;6723;48.256;16.402;2023-11-21T10:32:03;3.90;;;1.70;;
13309;SDS011;6723;48.256;16.402;2023-11-21T10:34:31;3.73;;;1.67;;
13309;SDS011;6723;48.256;16.402;2023-11-21T10:36:58;4.47;;;1.10;;
13309;SDS011;6723;48.256;16.402;2023-11-21T10:39:24;4.03;;;1.43;;
13309;SDS011;6723;48.256;16.402;2023-11-21T10:41:56;3.60;;;1.80;;
13309;SDS011;6723;48.256;16.402;2023-11-21T10:44:21;3.10;;;2.03;;
13309;SDS011;6723;48.256;16.402;2023-11-21T10:46:51;4.00;;;1.90;;
13309;SDS011;6723;48.256;16.402;2023-11-21T10:49:22;4.27;;;1.87;;
13309;SDS011;6723;48.256;16.402;2023-11-21T10:51:53;5.43;;;2.07;;
13309;SDS011;6723;48.256;16.402;2023-11-21T10:54:20;4.53;;;1.80;;
13309;SDS011;6723;48.256;16.402;2023-11-21T10:56:48;5.10;;;1.73;;
13309;SDS011;6723;48.256;16.402;2023-11-21T10:59:18;6.47;;;1.60;;
13309;SDS011;6723;48.256;16.402;2023-11-21T11:01:46;7.63;;;1.60;;
13309;SDS011;6723;48.256;16.402;2023-11-21T11:04:16;6.90;;;1.70;;
13309;SDS011;6723;48.256;16.402;2023-11-21T11:06:44;4.23;;;1.50;;
13309;SDS011;6723;48.256;16.402;2023-11-21T11:09:19;4.93;;;1.63;;
13309;SDS011;6723;48.256;16.402;2023-11-21T11:11:46;3.60;;;1.70;;
13309;SDS011;6723;48.256;16.402;2023-11-21T11:14:12;3.73;;;1.60;;
13309;SDS011;6723;48.256;16.402;2023-11-21T11:16:39;4.23;;;1.70;;
13309;SDS011;6723;48.256;16.402;2023-11-21T11:19:06;3.27;;;1.70;;
13309;SDS011;6723;48.256;16.402;2023-11-21T11:38:48;12.47;;;4.13;;
13309;SDS011;6723;48.256;16.402;2023-11-21T11:41:24;7.17;;;3.03;;
13309;SDS011;6723;48.256;16.402;2023-11-21T11:43:52;4.33;;;2.30;;
13309;SDS011;6723;48.256;16.402;2023-11-21T11:46:19;5.73;;;2.20;;
13309;SDS011;6723;48.256;16.402;2023-11-21T11:48:48;4.67;;;1.90;;
13309;SDS011;6723;48.256;16.402;2023-11-21T11:51:28;4.57;;;2.00;;
13309;SDS011;6723;48.256;16.402;2023-11-21T11:53:55;3.60;;;1.87;;
13309;SDS011;6723;48.256;16.402;2023-11-21T11:56:30;6.57;;;1.87;;
13309;SDS011;6723;48.256;16.402;2023-11-21T11:58:59;3.50;;;1.60;;
13309;SDS011;6723;48.256;16.402;2023-11-21T12:01:27;4.47;;;1.60;;
13309;SDS011;6723;48.256;16.402;2023-11-21T12:07:01;4.07;;;1.70;;
13309;SDS011;6723;48.256;16.402;2023-11-21T12:09:28;4.33;;;1.60;;
13309;SDS011;6723;48.256;16.402;2023-11-21T12:11:56;3.93;;;1.70;;
13309;SDS011;6723;48.256;16.402;2023-11-21T12:14:22;5.90;;;1.80;;
13309;SDS011;6723;48.256;16.402;2023-11-21T12:16:48;3.10;;;1.70;;
13309;SDS011;6723;48.256;16.402;2023-11-21T12:19:16;4.27;;;2.03;;
13309;SDS011;6723;48.256;16.402;2023-11-21T12:21:43;3.73;;;1.70;;
13309;SDS011;6723;48.256;16.402;2023-11-21T12:24:09;5.13;;;2.33;;
13309;SDS011;6723;48.256;16.402;2023-11-21T12:26:38;5.57;;;2.40;;
13309;SDS011;6723;48.256;16.402;2023-11-21T12:29:04;17.53;;;10.27;;
13309;SDS011;6723;48.256;16.402;2023-11-21T12:31:33;7.07;;;3.47;;
13309;SDS011;6723;48.256;16.402;2023-11-21T12:34:02;5.13;;;2.70;;
13309;SDS011;6723;48.256;16.402;2023-11-21T12:36:29;4.90;;;2.03;;
13309;SDS011;6723;48.256;16.402;2023-11-21T12:38:55;5.27;;;2.07;;
13309;SDS011;6723;48.256;16.402;2023-11-21T12:41:22;4.50;;;2.30;;
13309;SDS011;6723;48.256;16.402;2023-11-21T12:43:48;3.20;;;2.10;;
13309;SDS011;6723;48.256;16.402;2023-11-21T12:46:13;3.90;;;2.00;;
13309;SDS011;6723;48.256;16.402;2023-11-21T12:48:42;3.80;;;1.90;;
13309;SDS011;6723;48.256;16.402;2023-11-21T12:51:13;4.93;;;2.03;;
13309;SDS011;6723;48.256;16.402;2023-11-21T12:53:43;3.80;;;1.80;;
13309;SDS011;6723;48.256;16.402;2023-11-21T12:56:10;4.30;;;1.70;;
13309;SDS011;6723;48.256;16.402;2023-11-21T12:58:43;3.00;;;1.50;;
13309;SDS011;6723;48.256;16.402;2023-11-21T13:01:13;2.73;;;1.60;;
13309;SDS011;6723;48.256;16.402;2023-11-21T13:03:44;5.77;;;1.77;;
13309;SDS011;6723;48.256;16.402;2023-11-21T13:06:13;5.57;;;1.63;;
13309;SDS011;6723;48.256;16.402;2023-11-21T13:08:41;3.00;;;1.83;;
13309;SDS011;6723;48.256;16.402;2023-11-21T13:11:09;3.47;;;1.97;;
13309;SDS011;6723;48.256;16.402;2023-11-21T13:13:40;3.83;;;1.77;;
13309;SDS011;6723;48.256;16.402;2023-11-21T13:16:08;4.07;;;2.00;;
13309;SDS011;6723;48.256;16.402;2023-11-21T13:18:35;4.33;;;1.97;;
13309;SDS011;6723;48.256;16.402;2023-11-21T13:21:02;5.53;;;2.50;;
13309;SDS011;6723;48.256;16.402;2023-11-21T13:23:40;5.20;;;2.40;;
13309;SDS011;6723;48.256;16.402;2023-11-21T13:26:07;3.63;;;2.07;;
13309;SDS011;6723;48.256;16.402;2023-11-21T13:28:34;3.67;;;2.10;;
13309;SDS011;6723;48.256;16.402;2023-11-21T13:31:03;3.13;;;1.90;;
13309;SDS011;6723;48.256;16.402;2023-11-21T13:33:50;3.43;;;1.90;;
13309;SDS011;6723;48.256;16.402;2023-11-21T13:36:23;3.60;;;1.60;;
13309;SDS011;6723;48.256;16.402;2023-11-21T13:38:50;3.27;;;2.20;;
13309;SDS011;6723;48.256;16.402;2023-11-21T13:41:19;3.63;;;2.20;;
13309;SDS011;6723;48.256;16.402;2023-11-21T13:43:47;5.93;;;2.30;;
13309;SDS011;6723;48.256;16.402;2023-11-21T13:46:22;3.77;;;2.00;;
13309;SDS011;6723;48.256;16.402;2023-11-21T13:48:48;2.90;;;2.07;;
13309;SDS011;6723;48.256;16.402;2023-11-21T13:51:21;5.40;;;2.00;;
13309;SDS011;6723;48.256;16.402;2023-11-21T13:53:56;3.70;;;2.10;;
13309;SDS011;6723;48.256;16.402;2023-11-21T13:56:22;5.80;;;2.47;;
13309;SDS011;6723;48.256;16.402;2023-11-21T13:58:49;4.07;;;2.00;;
13309;SDS011;6723;48.256;16.402;2023-11-21T14:01:21;3.87;;;1.80;;
13309;SDS011;6723;48.256;16.402;2023-11-21T14:03:57;3.73;;;1.70;;
13309;SDS011;6723;48.256;16.402;2023-11-21T14:06:38;3.93;;;2.23;;
13309;SDS011;6723;48.256;16.402;2023-11-21T14:09:14;4.30;;;2.27;;
13309;SDS011;6723;48.256;16.402;2023-11-21T14:11:48;3.40;;;2.23;;
13309;SDS011;6723;48.256;16.402;2023-11-21T14:14:17;5.93;;;3.73;;
13309;SDS011;6723;48.256;16.402;2023-11-21T14:16:43;6.33;;;2.37;;
13309;SDS011;6723;48.256;16.402;2023-11-21T14:19:10;5.03;;;2.30;;
13309;SDS011;6723;48.256;16.402;2023-11-21T14:21:45;3.30;;;2.23;;
13309;SDS011;6723;48.256;16.402;2023-11-21T14:24:13;4.90;;;1.93;;
13309;SDS011;6723;48.256;16.402;2023-11-21T14:26:43;4.20;;;2.60;;
13309;SDS011;6723;48.256;16.402;2023-11-21T14:29:13;4.37;;;2.07;;
13309;SDS011;6723;48.256;16.402;2023-11-21T14:31:45;3.50;;;1.97;;
13309;SDS011;6723;48.256;16.402;2023-11-21T14:34:12;5.60;;;2.10;;
13309;SDS011;6723;48.256;16.402;2023-11-21T14:36:40;6.40;;;2.83;;
13309;SDS011;6723;48.256;16.402;2023-11-21T14:39:06;6.80;;;2.90;;
13309;SDS011;6723;48.256;16.402;2023-11-21T14:41:36;5.63;;;3.07;;
13309;SDS011;6723;48.256;16.402;2023-11-21T14:44:03;6.67;;;2.30;;
13309;SDS011;6723;48.256;16.402;2023-11-21T14:46:30;5.37;;;2.50;;
13309;SDS011;6723;48.256;16.402;2023-11-21T14:48:56;3.63;;;2.13;;
13309;SDS011;6723;48.256;16.402;2023-11-21T14:51:35;3.70;;;2.20;;
13309;SDS011;6723;48.256;16.402;2023-11-21T14:54:20;4.73;;;1.80;;
13309;SDS011;6723;48.256;16.402;2023-11-21T14:57:05;3.83;;;1.90;;
13309;SDS011;6723;48.256;16.402;2023-11-21T14:59:44;3.77;;;2.00;;
13309;SDS011;6723;48.256;16.402;2023-11-21T15:02:20;2.37;;;1.70;;
13309;SDS011;6723;48.256;16.402;2023-11-21T15:04:50;5.00;;;2.10;;
13309;SDS011;6723;48.256;16.402;2023-11-21T15:07:17;3.23;;;1.97;;
13309;SDS011;6723;48.256;16.402;2023-11-21T15:09:43;4.80;;;1.70;;
13309;SDS011;6723;48.256;16.402;2023-11-21T15:12:10;3.33;;;1.50;;
13309;SDS011;6723;48.256;16.402;2023-11-21T15:14:47;2.93;;;1.87;;
13309;SDS011;6723;48.256;16.402;2023-11-21T15:17:17;5.00;;;2.30;;
13309;SDS011;6723;48.256;16.402;2023-11-21T15:19:51;4.23;;;2.90;;